Time;durP1;ratioP1;P1;durP2;ratioP2;P2;SDS_P1;SDS_P2;PMS_P1;PMS_P2;Temp;Humidity;BMP_temperature;BMP_pressure;BME280_temperature;BME280_humidity;BME280_pressure;Samples;Min_cycle;Max_cycle;Signal;HPM_P1;HPM_P2
2023/07/01 00:00:53;;;;;;;;;1.33;1.33;;;;;22.55;60.62;100361.38;4805242;29;46954;-73
2023/07/01 00:03:18;;;;;;;;;2.67;2.67;;;;;22.46;62.66;100361.78;4807043;29;45392;-74
2023/07/01 00:05:44;;;;;;;;;2.00;2.00;;;;;22.39;62.84;100357.53;4806709;29;45476;-73
2023/07/01 00:08:09;;;;;;;;;2.00;1.00;;;;;22.33;62.13;100358.66;4807008;29;45418;-75
2023/07/01 00:10:36;;;;;;;;;3.67;3.67;;;;;22.34;61.53;100356.88;4806925;29;46757;-73
2023/07/01 00:13:02;;;;;;;;;2.00;2.00;;;;;22.35;62.21;100353.19;4807122;29;44894;-74
2023/07/01 00:15:28;;;;;;;;;3.00;3.00;;;;;22.30;62.49;100342.56;4807251;29;45441;-73
2023/07/01 00:17:54;;;;;;;;;1.00;1.00;;;;;22.30;63.47;100350.69;4807627;29;45760;-73
2023/07/01 00:20:21;;;;;;;;;3.00;2.33;;;;;22.28;61.76;100351.66;4806865;29;45521;-74
2023/07/01 00:22:47;;;;;;;;;4.00;2.33;;;;;22.35;63.09;100350.50;4807008;29;45400;-73
2023/07/01 00:25:13;;;;;;;;;1.33;1.33;;;;;22.24;62.64;100339.19;4806839;29;45391;-74
2023/07/01 00:27:38;;;;;;;;;4.33;3.33;;;;;22.16;65.42;100332.25;4805847;29;45437;-74
2023/07/01 00:30:04;;;;;;;;;2.00;2.00;;;;;22.09;63.43;100336.13;4807289;29;45799;-74
2023/07/01 00:32:29;;;;;;;;;3.00;3.00;;;;;22.07;63.42;100339.84;4806645;29;45421;-74
2023/07/01 00:34:55;;;;;;;;;2.00;2.00;;;;;22.04;64.62;100326.44;4811736;29;45795;-74
2023/07/01 00:37:20;;;;;;;;;2.00;2.00;;;;;22.02;63.92;100326.50;4824453;29;45915;-74
2023/07/01 00:39:46;;;;;;;;;2.00;2.00;;;;;22.03;65.12;100325.53;4826289;29;45904;-73
2023/07/01 00:42:12;;;;;;;;;3.00;3.00;;;;;22.01;65.26;100324.72;4823645;29;45466;-74
2023/07/01 00:44:39;;;;;;;;;1.67;1.67;;;;;22.07;65.52;100321.78;4823965;29;45424;-74
2023/07/01 00:47:05;;;;;;;;;2.00;2.00;;;;;22.02;68.43;100314.81;4824661;29;45373;-74
2023/07/01 00:49:30;;;;;;;;;1.67;1.67;;;;;21.95;67.80;100315.00;4824727;29;46134;-73
2023/07/01 00:51:56;;;;;;;;;2.00;2.00;;;;;21.91;66.28;100307.09;4825190;29;45408;-73
2023/07/01 00:54:22;;;;;;;;;3.67;3.67;;;;;21.87;68.42;100306.31;4825728;29;45565;-73
2023/07/01 00:56:48;;;;;;;;;2.67;2.33;;;;;21.90;67.30;100303.50;4824797;29;45502;-74
2023/07/01 00:59:13;;;;;;;;;4.00;3.00;;;;;21.86;67.44;100295.56;4823798;29;47334;-74
2023/07/01 01:01:46;;;;;;;;;3.00;3.00;;;;;21.92;67.64;100298.91;4825196;29;45449;-74
2023/07/01 01:04:31;;;;;;;;;2.33;2.33;;;;;21.90;68.21;100300.78;4825024;29;45448;-73
2023/07/01 01:07:22;;;;;;;;;4.00;3.00;;;;;21.90;69.00;100299.91;4825246;29;45544;-73
2023/07/01 01:09:52;;;;;;;;;3.00;2.00;;;;;21.84;70.42;100300.16;4823833;29;45483;-73
2023/07/01 01:12:23;;;;;;;;;3.00;3.00;;;;;21.83;72.39;100301.97;4824066;29;45519;-74
2023/07/01 01:14:51;;;;;;;;;3.33;3.33;;;;;21.74;75.26;100299.66;4824440;29;45477;-74
2023/07/01 01:17:19;;;;;;;;;2.67;2.67;;;;;21.60;76.83;100293.88;4824385;29;45314;-73
2023/07/01 01:19:59;;;;;;;;;2.00;2.00;;;;;21.53;78.41;100277.91;4824478;29;45635;-73
2023/07/01 01:22:36;;;;;;;;;2.00;2.00;;;;;21.45;77.49;100279.09;4824125;29;45454;-73
2023/07/01 01:25:05;;;;;;;;;1.00;1.00;;;;;21.38;78.57;100275.72;4822989;29;45632;-73
2023/07/01 01:27:41;;;;;;;;;2.00;2.00;;;;;21.38;79.97;100273.91;4822435;29;45639;-73
2023/07/01 01:30:07;;;;;;;;;2.00;1.00;;;;;21.24;79.86;100270.84;4824142;29;45409;-73
2023/07/01 01:32:36;;;;;;;;;2.00;2.00;;;;;21.26;81.22;100268.09;4824424;29;45535;-73
2023/07/01 01:35:06;;;;;;;;;2.00;1.75;;;;;21.27;80.91;100261.72;4829122;29;45413;-73
2023/07/01 01:37:54;;;;;;;;;1.00;1.00;;;;;21.34;80.71;100261.44;4825710;29;45512;-74
2023/07/01 01:40:30;;;;;;;;;3.00;3.00;;;;;21.30;80.45;100257.06;4841761;29;46499;-74
2023/07/01 01:43:03;;;;;;;;;2.00;2.00;;;;;21.34;80.33;100256.03;4842049;29;45748;-74
2023/07/01 01:45:29;;;;;;;;;1.67;1.67;;;;;21.25;82.21;100253.69;4842396;29;45731;-74
2023/07/01 01:47:54;;;;;;;;;1.00;1.00;;;;;21.30;80.48;100259.78;4842350;29;45466;-74
2023/07/01 01:50:21;;;;;;;;;2.00;2.00;;;;;21.36;82.46;100250.56;4825813;29;46891;-74
2023/07/01 01:52:50;;;;;;;;;3.00;3.00;;;;;21.35;81.12;100249.69;4825809;29;45540;-74
2023/07/01 01:55:17;;;;;;;;;2.67;2.67;;;;;21.28;86.25;100239.16;4842816;29;45856;-74
2023/07/01 01:57:44;;;;;;;;;3.00;3.00;;;;;21.22;84.66;100242.09;4828162;29;45723;-74
2023/07/01 02:00:13;;;;;;;;;3.00;3.00;;;;;21.22;85.01;100247.50;4828977;29;46957;-74
2023/07/01 02:02:38;;;;;;;;;1.33;1.33;;;;;21.17;84.76;100242.28;4845410;29;45544;-74
2023/07/01 02:05:04;;;;;;;;;2.33;2.33;;;;;21.16;84.86;100233.25;4845681;29;45520;-74
2023/07/01 02:07:29;;;;;;;;;2.00;2.00;;;;;21.16;85.73;100230.56;4828831;29;45817;-74
2023/07/01 02:09:55;;;;;;;;;1.67;1.67;;;;;21.15;84.61;100234.22;4844849;29;45851;-73
2023/07/01 02:12:22;;;;;;;;;2.67;2.67;;;;;21.20;85.34;100231.31;4845333;29;44930;-73
2023/07/01 02:14:47;;;;;;;;;1.00;1.00;;;;;21.13;85.31;100219.88;4845073;29;45441;-73
2023/07/01 02:17:12;;;;;;;;;2.50;2.50;;;;;21.20;86.75;100234.03;4845827;29;45427;-73
2023/07/01 02:19:38;;;;;;;;;3.00;3.00;;;;;21.19;83.85;100218.75;4828463;29;47062;-73
2023/07/01 02:22:03;;;;;;;;;1.00;1.00;;;;;21.20;86.37;100225.03;4828322;29;45408;-73
2023/07/01 02:24:30;;;;;;;;;2.00;2.00;;;;;21.23;87.74;100215.00;4845110;29;45745;-73
2023/07/01 02:26:55;;;;;;;;;2.00;2.00;;;;;21.11;87.41;100215.47;4844985;29;45395;-73
2023/07/01 02:29:21;;;;;;;;;1.00;1.00;;;;;21.09;85.84;100211.94;4828465;29;45453;-73
2023/07/01 02:31:46;;;;;;;;;1.00;1.00;;;;;21.10;84.67;100213.69;4845667;29;45373;-74
2023/07/01 02:34:11;;;;;;;;;2.33;2.00;;;;;21.13;84.21;100206.34;4846172;29;45501;-73
2023/07/01 02:36:40;;;;;;;;;3.00;2.00;;;;;21.20;85.93;100203.41;4844355;29;45699;-73
2023/07/01 02:39:06;;;;;;;;;1.00;1.00;;;;;21.18;84.85;100200.75;4845176;29;45473;-73
2023/07/01 02:41:31;;;;;;;;;1.00;1.00;;;;;21.19;88.20;100194.44;4845078;29;45503;-73
2023/07/01 02:43:56;;;;;;;;;3.00;3.00;;;;;21.17;86.42;100194.47;4844973;29;45567;-73
2023/07/01 02:46:22;;;;;;;;;1.00;1.00;;;;;21.16;89.17;100183.72;4844470;29;45356;-74
2023/07/01 02:48:48;;;;;;;;;1.50;1.50;;;;;21.24;89.17;100189.69;4844798;29;57004;-73
2023/07/01 02:51:14;;;;;;;;;2.00;2.00;;;;;21.12;86.86;100180.22;4844391;29;45438;-73
2023/07/01 02:53:42;;;;;;;;;1.33;1.33;;;;;21.29;87.02;100185.00;4844586;29;45291;-74
2023/07/01 02:56:08;;;;;;;;;2.00;2.00;;;;;21.25;86.05;100180.66;4845137;29;45370;-73
2023/07/01 02:58:33;;;;;;;;;2.00;2.00;;;;;21.33;85.63;100193.84;4844772;29;45409;-73
2023/07/01 03:01:00;;;;;;;;;1.00;1.00;;;;;21.41;88.36;100185.44;4844779;29;45463;-74
2023/07/01 03:03:26;;;;;;;;;2.33;2.33;;;;;21.29;89.55;100187.72;4844837;29;45593;-74
2023/07/01 03:05:51;;;;;;;;;1.00;1.00;;;;;21.24;87.98;100184.28;4844847;29;45470;-73
2023/07/01 03:08:17;;;;;;;;;2.00;2.00;;;;;21.26;87.29;100187.81;4827597;29;47198;-73
2023/07/01 03:10:42;;;;;;;;;3.00;1.00;;;;;21.26;87.01;100179.72;4828099;29;44762;-73
2023/07/01 03:13:08;;;;;;;;;2.00;2.00;;;;;21.25;86.43;100172.56;4827781;29;45466;-74
2023/07/01 03:15:33;;;;;;;;;2.67;2.67;;;;;21.26;88.00;100177.00;4844830;29;45378;-74
2023/07/01 03:17:58;;;;;;;;;3.00;3.00;;;;;21.29;86.33;100171.47;4844180;29;45402;-73
2023/07/01 03:20:24;;;;;;;;;2.00;2.00;;;;;21.31;88.09;100172.31;4844332;29;45420;-74
2023/07/01 03:22:58;;;;;;;;;1.67;1.67;;;;;21.40;86.92;100167.47;4844697;29;45390;-74
2023/07/01 03:25:25;;;;;;;;;2.00;2.00;;;;;21.33;87.84;100173.13;4845008;29;45491;-73
2023/07/01 03:27:50;;;;;;;;;2.00;2.00;;;;;21.33;87.31;100159.59;4827305;29;48231;-73
2023/07/01 03:30:17;;;;;;;;;1.00;1.00;;;;;21.40;87.17;100162.94;4843713;29;45485;-73
2023/07/01 03:32:44;;;;;;;;;2.00;2.00;;;;;21.36;90.92;100166.69;4827649;29;45496;-73
2023/07/01 03:35:10;;;;;;;;;3.67;2.00;;;;;21.18;92.95;100154.78;4824280;29;45483;-73
2023/07/01 03:37:40;;;;;;;;;2.00;2.00;;;;;21.11;94.20;100158.69;4825532;29;46765;-73
2023/07/01 03:40:10;;;;;;;;;1.00;1.00;;;;;21.02;96.83;100156.31;4825417;29;45433;-74
2023/07/01 03:42:39;;;;;;;;;2.00;1.33;;;;;20.94;94.54;100153.91;4825685;29;45535;-73
2023/07/01 03:45:06;;;;;;;;;1.00;1.00;;;;;20.97;93.13;100154.69;4826133;29;45657;-73
2023/07/01 03:47:31;;;;;;;;;1.33;1.33;;;;;21.05;93.52;100150.81;4825244;29;45389;-73
2023/07/01 03:49:57;;;;;;;;;2.00;2.00;;;;;21.10;92.57;100144.25;4823991;29;45587;-74
2023/07/01 03:52:22;;;;;;;;;2.00;2.00;;;;;21.07;93.89;100144.41;4825748;29;45076;-74
2023/07/01 03:54:47;;;;;;;;;1.67;1.67;;;;;21.06;93.80;100139.91;4825893;29;45558;-74
2023/07/01 03:57:13;;;;;;;;;1.00;1.00;;;;;21.03;96.20;100141.88;4825502;29;45486;-74
2023/07/01 03:59:40;;;;;;;;;3.00;3.00;;;;;21.06;99.10;100137.22;4825823;29;45510;-75
2023/07/01 04:02:06;;;;;;;;;2.00;2.00;;;;;20.92;96.35;100134.16;4826263;29;45495;-73
2023/07/01 04:04:31;;;;;;;;;1.00;1.00;;;;;20.92;96.68;100140.44;4824253;29;45569;-74
2023/07/01 04:06:57;;;;;;;;;0.00;0.00;;;;;20.90;96.85;100134.22;4823784;29;46005;-73
2023/07/01 04:09:22;;;;;;;;;0.75;0.75;;;;;20.94;98.30;100126.88;4823724;29;45428;-74
2023/07/01 04:11:48;;;;;;;;;0.50;0.50;;;;;21.00;95.47;100125.75;4824107;29;45694;-74
2023/07/01 04:14:15;;;;;;;;;1.00;1.00;;;;;21.00;98.71;100121.22;4826012;29;45398;-74
2023/07/01 04:16:44;;;;;;;;;0.00;0.00;;;;;21.02;98.76;100134.69;4823718;29;45349;-73
2023/07/01 04:19:12;;;;;;;;;0.00;0.00;;;;;20.97;98.91;100129.47;4825390;29;45950;-74
2023/07/01 04:21:38;;;;;;;;;1.00;1.00;;;;;21.03;97.39;100125.66;4823958;29;45413;-75
2023/07/01 04:24:05;;;;;;;;;0.00;0.00;;;;;21.04;97.51;100127.41;4825727;29;45811;-75
2023/07/01 04:26:31;;;;;;;;;2.00;2.00;;;;;21.03;100.00;100128.38;4823651;29;46988;-74
2023/07/01 04:29:04;;;;;;;;;0.00;0.00;;;;;21.08;100.00;100123.66;4825076;29;45370;-76
2023/07/01 04:31:29;;;;;;;;;0.75;0.75;;;;;20.96;100.00;100122.28;4825004;29;45404;-74
2023/07/01 04:33:55;;;;;;;;;1.00;0.00;;;;;20.97;99.47;100121.38;4825072;29;45350;-74
2023/07/01 04:36:27;;;;;;;;;0.00;0.00;;;;;21.04;98.62;100122.00;4836091;29;45508;-73
2023/07/01 04:39:00;;;;;;;;;1.00;1.00;;;;;21.17;99.38;100117.88;4843112;29;45445;-73
2023/07/01 04:41:25;;;;;;;;;1.00;1.00;;;;;21.15;97.86;100123.34;4843775;29;45533;-73
2023/07/01 04:43:50;;;;;;;;;0.00;0.00;;;;;21.23;97.02;100112.22;4843484;29;45381;-74
2023/07/01 04:46:16;;;;;;;;;0.50;0.50;;;;;21.30;97.16;100120.97;4843261;29;45861;-74
2023/07/01 04:48:41;;;;;;;;;0.75;0.75;;;;;21.29;96.78;100113.78;4843218;29;45626;-74
2023/07/01 04:51:06;;;;;;;;;0.50;0.50;;;;;21.30;97.06;100111.03;4843415;29;44787;-73
2023/07/01 04:53:32;;;;;;;;;0.00;0.00;;;;;21.30;97.18;100113.72;4843184;29;45624;-74
2023/07/01 04:55:57;;;;;;;;;1.00;1.00;;;;;21.28;98.02;100109.34;4843864;29;45300;-74
2023/07/01 04:58:23;;;;;;;;;0.25;0.25;;;;;21.26;98.48;100103.97;4843642;29;45414;-73
2023/07/01 05:00:48;;;;;;;;;1.00;0.75;;;;;21.19;100.00;100099.78;4826653;29;45513;-74
2023/07/01 05:03:13;;;;;;;;;0.50;0.50;;;;;21.12;99.15;100099.13;4843511;29;45477;-74
2023/07/01 05:05:39;;;;;;;;;0.75;0.75;;;;;21.18;99.37;100108.81;4842682;29;45406;-74
2023/07/01 05:08:05;;;;;;;;;1.00;1.00;;;;;21.21;100.00;100103.31;4843004;29;45752;-73
2023/07/01 05:10:30;;;;;;;;;0.00;0.00;;;;;21.22;99.60;100102.34;4826396;29;45553;-74
2023/07/01 05:12:55;;;;;;;;;1.00;1.00;;;;;21.26;99.20;100103.09;4843485;29;45467;-73
2023/07/01 05:15:21;;;;;;;;;1.00;1.00;;;;;21.31;98.49;100101.06;4842349;29;45371;-73
2023/07/01 05:17:46;;;;;;;;;0.00;0.00;;;;;21.36;98.01;100107.19;4825678;29;45603;-73
2023/07/01 05:20:12;;;;;;;;;0.00;0.00;;;;;21.44;98.67;100104.22;4842866;29;45409;-73
2023/07/01 05:22:37;;;;;;;;;0.50;0.50;;;;;21.46;98.36;100099.63;4842698;29;45521;-73
2023/07/01 05:25:04;;;;;;;;;0.25;0.25;;;;;21.56;99.24;100101.88;4841127;29;46785;-73
2023/07/01 05:27:31;;;;;;;;;1.00;1.00;;;;;21.59;98.99;100098.16;4842312;29;45850;-73
2023/07/01 05:29:57;;;;;;;;;0.00;0.00;;;;;21.58;98.67;100112.63;4842152;29;45528;-73
2023/07/01 05:32:22;;;;;;;;;1.00;1.00;;;;;21.50;99.37;100094.00;4841916;29;45404;-74
2023/07/01 05:34:48;;;;;;;;;0.00;0.00;;;;;21.53;99.26;100093.00;4826077;29;45956;-74
2023/07/01 05:37:13;;;;;;;;;0.50;0.50;;;;;21.54;99.41;100094.78;4821861;29;45479;-75
2023/07/01 05:39:40;;;;;;;;;0.25;0.25;;;;;21.62;100.00;100103.44;4822099;29;45445;-74
2023/07/01 05:42:06;;;;;;;;;0.00;0.00;;;;;21.57;99.14;100100.94;4823029;29;45500;-73
2023/07/01 05:44:31;;;;;;;;;0.00;0.00;;;;;21.61;99.10;100096.25;4825107;29;45354;-74
2023/07/01 05:46:58;;;;;;;;;1.00;1.00;;;;;21.70;99.39;100089.59;4823745;29;45465;-74
2023/07/01 05:49:24;;;;;;;;;0.00;0.00;;;;;21.73;100.00;100095.78;4823972;29;45937;-73
2023/07/01 05:51:49;;;;;;;;;0.00;0.00;;;;;21.74;99.92;100100.22;4824376;29;45947;-73
2023/07/01 05:54:14;;;;;;;;;1.00;1.00;;;;;21.75;100.00;100093.88;4822011;29;48007;-74
2023/07/01 05:56:40;;;;;;;;;0.75;0.75;;;;;21.81;99.96;100103.53;4823790;29;45563;-73
2023/07/01 05:59:05;;;;;;;;;0.00;0.00;;;;;21.87;99.70;100091.56;4824618;29;45579;-74
2023/07/01 06:01:31;;;;;;;;;1.25;1.25;;;;;22.00;99.05;100097.38;4824417;29;45527;-74
2023/07/01 06:03:57;;;;;;;;;1.00;0.50;;;;;22.11;99.65;100104.03;4824243;29;45482;-74
2023/07/01 06:06:23;;;;;;;;;0.50;0.50;;;;;22.08;100.00;100097.91;4824026;29;45391;-74
2023/07/01 06:08:48;;;;;;;;;0.75;0.75;;;;;22.09;100.00;100105.06;4824286;29;45406;-73
2023/07/01 06:11:14;;;;;;;;;0.50;0.50;;;;;22.17;100.00;100105.59;4824389;29;45356;-73
2023/07/01 06:13:47;;;;;;;;;0.25;0.25;;;;;22.32;100.00;100104.09;4823329;29;46273;-73
2023/07/01 06:16:13;;;;;;;;;0.00;0.00;;;;;22.31;100.00;100105.03;4823176;29;45388;-73
2023/07/01 06:18:39;;;;;;;;;0.00;0.00;;;;;22.40;98.52;100101.03;4823203;29;45392;-73
2023/07/01 06:21:06;;;;;;;;;1.00;1.00;;;;;22.49;98.26;100096.06;4822218;29;45733;-74
2023/07/01 06:23:33;;;;;;;;;1.00;0.00;;;;;22.56;97.79;100092.16;4823278;29;45662;-75
2023/07/01 06:25:58;;;;;;;;;0.25;0.25;;;;;22.52;99.29;100095.94;4823262;29;45483;-74
2023/07/01 06:28:23;;;;;;;;;0.00;0.00;;;;;22.49;99.26;100096.06;4824073;29;45749;-74
2023/07/01 06:30:49;;;;;;;;;0.00;0.00;;;;;22.49;96.93;100089.78;4824043;29;45486;-74
2023/07/01 06:33:14;;;;;;;;;0.50;0.50;;;;;22.55;97.24;100095.78;4822152;29;47284;-74
2023/07/01 06:35:42;;;;;;;;;0.00;0.00;;;;;22.60;97.38;100091.97;4826157;29;45495;-75
2023/07/01 06:38:09;;;;;;;;;0.00;0.00;;;;;22.67;96.68;100082.63;4825022;29;45429;-73
2023/07/01 06:40:34;;;;;;;;;0.00;0.00;;;;;22.73;97.39;100085.06;4842069;29;45719;-74
2023/07/01 06:42:59;;;;;;;;;0.75;0.75;;;;;22.82;96.82;100079.19;4841397;29;45330;-74
2023/07/01 06:45:26;;;;;;;;;1.00;1.00;;;;;23.03;97.53;100087.31;4827686;29;45317;-74
2023/07/01 06:47:51;;;;;;;;;0.00;0.00;;;;;22.98;94.56;100092.91;4845191;29;45630;-73
2023/07/01 06:50:17;;;;;;;;;0.00;0.00;;;;;23.04;93.73;100076.34;4828753;29;45690;-74
2023/07/01 06:52:42;;;;;;;;;0.00;0.00;;;;;22.97;93.33;100075.75;4845559;29;45999;-74
2023/07/01 06:55:08;;;;;;;;;1.00;1.00;;;;;23.01;93.44;100091.91;4828436;29;45699;-74
2023/07/01 06:57:33;;;;;;;;;2.00;0.00;;;;;23.00;93.84;100074.72;4845010;29;45416;-73
2023/07/01 06:59:59;;;;;;;;;0.00;0.00;;;;;23.03;93.52;100079.19;4828171;29;45465;-73
2023/07/01 07:02:25;;;;;;;;;0.00;0.00;;;;;23.01;92.08;100087.34;4845112;29;45913;-73
2023/07/01 07:04:52;;;;;;;;;1.00;1.00;;;;;23.04;91.94;100087.22;4827929;29;45578;-74
2023/07/01 07:07:18;;;;;;;;;0.00;0.00;;;;;23.03;92.77;100080.03;4845066;29;45413;-74
2023/07/01 07:09:44;;;;;;;;;0.00;0.00;;;;;23.03;91.38;100084.59;4844787;29;45405;-74
2023/07/01 07:12:09;;;;;;;;;0.00;0.00;;;;;23.08;91.82;100086.09;4828345;29;47364;-73
2023/07/01 07:14:34;;;;;;;;;1.00;1.00;;;;;23.12;92.57;100086.84;4828477;29;45477;-73
2023/07/01 07:17:00;;;;;;;;;0.25;0.25;;;;;23.16;92.00;100092.03;4813194;29;45398;-72
2023/07/01 07:19:27;;;;;;;;;1.00;0.25;;;;;23.19;91.33;100082.00;4844760;29;45538;-73
2023/07/01 07:21:54;;;;;;;;;0.50;0.50;;;;;23.25;92.61;100079.88;4827049;29;47910;-74
2023/07/01 07:24:19;;;;;;;;;0.00;0.00;;;;;23.28;91.48;100082.44;4827310;29;45788;-74
2023/07/01 07:27:00;;;;;;;;;0.00;0.00;;;;;23.50;91.08;100089.50;4844779;29;45787;-74
2023/07/01 07:29:25;;;;;;;;;0.00;0.00;;;;;23.48;91.45;100084.16;4829102;29;45736;-73
2023/07/01 07:31:51;;;;;;;;;1.25;0.50;;;;;23.56;91.19;100090.06;4844062;29;45567;-73
2023/07/01 07:34:17;;;;;;;;;0.25;0.25;;;;;23.78;90.58;100082.72;4844073;29;45393;-74
2023/07/01 07:36:43;;;;;;;;;0.00;0.00;;;;;23.89;90.65;100089.34;4843427;29;45540;-74
2023/07/01 07:39:12;;;;;;;;;1.00;1.00;;;;;24.01;88.58;100078.81;4844222;29;45627;-74
2023/07/01 07:41:38;;;;;;;;;0.00;0.00;;;;;24.08;87.62;100083.84;4843743;29;45544;-74
2023/07/01 07:44:04;;;;;;;;;0.00;0.00;;;;;24.12;86.98;100082.72;4826817;29;45567;-74
2023/07/01 07:46:35;;;;;;;;;0.00;0.00;;;;;24.33;86.86;100083.41;4844299;29;45738;-74
2023/07/01 07:49:01;;;;;;;;;0.00;0.00;;;;;24.41;86.38;100082.13;4827649;29;45531;-74
2023/07/01 07:51:26;;;;;;;;;0.00;0.00;;;;;24.44;86.92;100077.41;4827244;29;46977;-74
2023/07/01 07:53:58;;;;;;;;;0.25;0.25;;;;;24.58;84.90;100081.25;4827597;29;45652;-74
2023/07/01 07:56:23;;;;;;;;;1.00;1.00;;;;;24.42;84.19;100076.63;4826974;29;45486;-74
2023/07/01 07:58:49;;;;;;;;;1.00;1.00;;;;;24.48;84.20;100072.66;4844254;29;45393;-74
2023/07/01 08:01:14;;;;;;;;;1.00;1.00;;;;;24.53;83.37;100070.63;4826867;29;47786;-75
2023/07/01 08:03:40;;;;;;;;;0.00;0.00;;;;;24.65;82.51;100072.66;4843566;29;45470;-74
2023/07/01 08:06:06;;;;;;;;;0.00;0.00;;;;;24.65;80.93;100077.25;4827066;29;45492;-74
2023/07/01 08:08:33;;;;;;;;;0.00;0.00;;;;;24.67;81.84;100081.63;4843793;29;45603;-74
2023/07/01 08:10:59;;;;;;;;;0.00;0.00;;;;;24.53;81.36;100082.38;4826964;29;47168;-74
2023/07/01 08:13:25;;;;;;;;;0.00;0.00;;;;;24.51;82.22;100073.41;4827149;29;45848;-74
2023/07/01 08:15:51;;;;;;;;;0.00;0.00;;;;;24.64;81.91;100079.09;4844122;29;45317;-74
2023/07/01 08:18:17;;;;;;;;;0.50;0.50;;;;;24.68;81.45;100085.22;4843858;29;45372;-74
2023/07/01 08:20:44;;;;;;;;;0.00;0.00;;;;;24.57;83.34;100083.09;4843535;29;45498;-74
2023/07/01 08:23:11;;;;;;;;;0.50;0.00;;;;;24.19;84.06;100088.72;4843981;29;45632;-74
2023/07/01 08:25:39;;;;;;;;;0.00;0.00;;;;;24.08;84.73;100102.88;4826982;29;45548;-74
2023/07/01 08:28:04;;;;;;;;;0.50;0.50;;;;;23.30;91.92;100115.78;4827132;29;45726;-73
2023/07/01 08:30:33;;;;;;;;;0.00;0.00;;;;;22.52;98.08;100108.59;4827064;29;46986;-75
2023/07/01 08:32:58;;;;;;;;;0.00;0.00;;;;;21.90;100.00;100118.53;4843720;29;45530;-74
2023/07/01 08:35:24;;;;;;;;;0.00;0.00;;;;;21.61;100.00;100122.44;4826808;29;45468;-74
2023/07/01 08:37:49;;;;;;;;;0.00;0.00;;;;;;;;4843632;29;45655;-73
2023/07/01 08:40:14;;;;;;;;;0.00;0.00;;;;;21.65;100.00;100119.53;4827076;29;45523;-73
2023/07/01 08:42:50;;;;;;;;;0.00;0.00;;;;;21.93;100.00;100118.38;4827226;29;45484;-74
2023/07/01 08:45:15;;;;;;;;;2.00;0.25;;;;;21.99;100.00;100120.81;4843776;29;45379;-73
2023/07/01 08:47:41;;;;;;;;;0.00;0.00;;;;;22.06;100.00;100122.34;4844569;29;45745;-73
2023/07/01 08:50:08;;;;;;;;;0.00;0.00;;;;;22.18;100.00;100118.22;4827433;29;46764;-73
2023/07/01 08:52:44;;;;;;;;;0.00;0.00;;;;;22.23;100.00;100110.75;4827197;29;45852;-73
2023/07/01 08:55:11;;;;;;;;;0.00;0.00;;;;;22.18;100.00;100100.13;4844348;29;45404;-76
2023/07/01 08:57:40;;;;;;;;;0.00;0.00;;;;;22.59;100.00;100106.50;4844859;29;45324;-74
2023/07/01 09:00:07;;;;;;;;;1.00;1.00;;;;;22.72;100.00;100099.53;4844168;29;46161;-73
2023/07/01 09:02:34;;;;;;;;;0.00;0.00;;;;;22.82;98.22;100091.88;4825800;29;45438;-73
2023/07/01 09:04:59;;;;;;;;;0.25;0.00;;;;;23.06;98.10;100084.44;4826181;29;45383;-73
2023/07/01 09:07:25;;;;;;;;;0.00;0.00;;;;;23.32;96.72;100075.91;4825683;29;45713;-73
2023/07/01 09:09:50;;;;;;;;;0.00;0.00;;;;;23.57;95.94;100085.53;4843288;29;45682;-74
2023/07/01 09:12:15;;;;;;;;;0.00;0.00;;;;;23.89;93.73;100080.31;4843761;29;45362;-73
2023/07/01 09:15:00;;;;;;;;;0.75;0.75;;;;;24.46;92.73;100086.38;4826611;29;45394;-73
2023/07/01 09:17:34;;;;;;;;;0.00;0.00;;;;;24.60;86.77;100084.75;4843660;29;45448;-74
2023/07/01 09:20:01;;;;;;;;;0.00;0.00;;;;;24.61;87.00;100083.81;4826835;29;48114;-74
2023/07/01 09:22:28;;;;;;;;;0.00;0.00;;;;;24.80;86.70;100079.09;4843317;29;45397;-74
2023/07/01 09:24:54;;;;;;;;;1.00;1.00;;;;;24.97;85.97;100088.19;4842956;29;45527;-73
2023/07/01 09:27:20;;;;;;;;;2.00;1.00;;;;;25.13;84.68;100075.47;4843234;29;45395;-73
2023/07/01 09:29:45;;;;;;;;;1.00;0.00;;;;;25.07;80.37;100079.41;4826182;29;46070;-74
2023/07/01 09:32:24;;;;;;;;;0.00;0.00;;;;;25.01;76.05;100087.03;4842944;29;45614;-73
2023/07/01 09:34:55;;;;;;;;;0.00;0.00;;;;;24.67;74.99;100089.78;4843464;29;45392;-73
2023/07/01 09:37:21;;;;;;;;;0.00;0.00;;;;;24.63;74.89;100098.19;4823105;29;45579;-74
2023/07/01 09:39:49;;;;;;;;;0.00;0.00;;;;;24.59;71.77;100085.72;4824431;29;45442;-73
2023/07/01 09:42:18;;;;;;;;;0.00;0.00;;;;;24.43;71.72;100094.69;4823340;29;45306;-74
2023/07/01 09:45:04;;;;;;;;;0.00;0.00;;;;;24.65;74.46;100085.41;4823404;29;45479;-73
2023/07/01 09:47:29;;;;;;;;;0.00;0.00;;;;;24.81;74.41;100091.75;4823566;29;45524;-73
2023/07/01 09:49:55;;;;;;;;;0.00;0.00;;;;;24.88;72.59;100081.38;4825053;29;45521;-74
2023/07/01 09:52:32;;;;;;;;;0.00;0.00;;;;;25.04;71.99;100093.16;4824476;29;45559;-73
2023/07/01 09:55:00;;;;;;;;;0.00;0.00;;;;;25.00;69.09;100088.84;4824404;29;45475;-73
2023/07/01 09:57:26;;;;;;;;;0.00;0.00;;;;;24.95;69.74;100094.56;4823255;29;45539;-73
2023/07/01 09:59:52;;;;;;;;;0.00;0.00;;;;;25.16;69.39;100086.16;4823908;29;46052;-74
2023/07/01 10:02:18;;;;;;;;;0.00;0.00;;;;;25.20;69.49;100079.56;4825465;29;45540;-74
2023/07/01 10:04:44;;;;;;;;;0.25;0.25;;;;;25.57;67.86;100080.19;4824523;29;45460;-74
2023/07/01 10:07:09;;;;;;;;;0.00;0.00;;;;;25.72;67.99;100079.28;4824097;29;45816;-74
2023/07/01 10:09:35;;;;;;;;;0.00;0.00;;;;;25.96;65.50;100073.38;4822411;29;45481;-74
2023/07/01 10:12:01;;;;;;;;;0.00;0.00;;;;;26.06;62.88;100088.19;4822367;29;45884;-72
2023/07/01 10:14:31;;;;;;;;;0.00;0.00;;;;;26.13;63.43;100084.09;4823592;29;45469;-73
2023/07/01 10:16:57;;;;;;;;;0.00;0.00;;;;;25.89;59.88;100085.56;4824245;29;44942;-74
2023/07/01 10:19:32;;;;;;;;;0.00;0.00;;;;;25.93;62.21;100077.16;4826853;29;45601;-74
2023/07/01 10:22:28;;;;;;;;;1.00;1.00;;;;;26.16;61.85;100083.06;4826835;29;45415;-74
2023/07/01 10:24:55;;;;;;;;;0.00;0.00;;;;;26.24;61.75;100088.00;4827084;29;45491;-74
2023/07/01 10:27:44;;;;;;;;;1.00;1.00;;;;;26.53;59.54;100081.63;4825354;29;45606;-74
2023/07/01 10:30:13;;;;;;;;;0.75;0.75;;;;;26.68;60.27;100090.75;4826599;29;45444;-74
2023/07/01 10:32:39;;;;;;;;;1.50;0.00;;;;;26.69;57.94;100086.16;4824594;29;45942;-75
2023/07/01 10:35:04;;;;;;;;;2.00;0.00;;;;;26.87;57.76;100095.91;4827131;29;45745;-74
2023/07/01 10:37:38;;;;;;;;;0.00;0.00;;;;;26.95;57.74;100089.94;4840252;29;45463;-74
2023/07/01 10:40:27;;;;;;;;;0.50;0.50;;;;;26.94;57.25;100086.34;4845443;29;45545;-75
2023/07/01 10:43:32;;;;;;;;;0.00;0.00;;;;;26.73;57.22;100087.72;4836661;29;45462;-74
2023/07/01 10:46:12;;;;;;;;;0.25;0.25;;;;;26.70;58.11;100082.44;4828544;29;45500;-73
2023/07/01 10:49:03;;;;;;;;;0.50;0.50;;;;;26.77;57.91;100082.94;4828137;29;45421;-73
2023/07/01 10:51:31;;;;;;;;;1.50;1.50;;;;;26.88;58.40;100077.66;4844508;29;46092;-74
2023/07/01 10:54:02;;;;;;;;;0.00;0.00;;;;;27.24;56.93;100076.28;4844621;29;45457;-73
2023/07/01 10:56:35;;;;;;;;;0.50;0.50;;;;;27.41;53.77;100076.03;4828269;29;45413;-74
2023/07/01 10:59:20;;;;;;;;;1.00;1.00;;;;;27.50;53.47;100072.69;4828305;29;45475;-74
2023/07/01 11:01:51;;;;;;;;;0.00;0.00;;;;;27.42;53.78;100074.19;4845105;29;45830;-74
2023/07/01 11:04:18;;;;;;;;;1.00;0.50;;;;;27.38;53.59;100084.44;4845781;29;45711;-73
2023/07/01 11:06:52;;;;;;;;;0.00;0.00;;;;;27.39;53.17;100074.38;4845168;29;45536;-74
2023/07/01 11:09:34;;;;;;;;;0.75;0.75;;;;;27.40;51.32;100065.22;4845212;29;45456;-73
2023/07/01 11:12:06;;;;;;;;;1.25;1.25;;;;;27.32;52.90;100073.91;4844808;29;45411;-75
2023/07/01 11:14:36;;;;;;;;;1.00;1.00;;;;;27.29;53.02;100075.00;4827818;29;45502;-73
2023/07/01 11:17:15;;;;;;;;;0.75;0.75;;;;;27.24;53.88;100076.28;4844823;29;45374;-73
2023/07/01 11:19:40;;;;;;;;;2.33;1.67;;;;;27.00;52.85;100093.25;4845148;29;45415;-74
2023/07/01 11:22:09;;;;;;;;;1.67;1.00;;;;;26.97;52.40;100087.13;4828517;29;47348;-74
2023/07/01 11:24:36;;;;;;;;;1.00;1.00;;;;;26.78;52.58;100079.22;4845716;29;45505;-74
2023/07/01 11:27:07;;;;;;;;;2.00;2.00;;;;;26.92;52.98;100093.75;4845330;29;45609;-74